Time;durP1;ratioP1;P1;durP2;ratioP2;P2;SDS_P1;SDS_P2;PMS_P1;PMS_P2;Temp;Humidity;BMP_temperature;BMP_pressure;BME280_temperature;BME280_humidity;BME280_pressure;Samples;Min_cycle;Max_cycle;Signal;HPM_P1;HPM_P2
2022/12/11 00:07:26;;;;;;;31.30;19.20;;;;;;;-2.05;99.09;98534.34;420317;1278;142698;-65
2022/12/11 00:17:32;;;;;;;23.60;18.00;;;;;;;-2.08;99.28;98524.83;419439;1279;142971;-65
2022/12/11 00:27:37;;;;;;;23.90;17.60;;;;;;;-2.15;99.07;98519.52;425495;1272;142181;-65
2022/12/11 00:37:45;;;;;;;27.10;18.40;;;;;;;-2.13;99.28;98520.15;436695;1287;143851;-66
2022/12/11 00:47:51;;;;;;;25.00;19.40;;;;;;;-2.15;99.39;98529.48;436655;1280;144017;-66
2022/12/11 00:57:58;;;;;;;27.80;19.90;;;;;;;-2.17;99.09;98529.54;436226;1281;143412;-65
2022/12/11 01:08:04;;;;;;;24.60;18.10;;;;;;;-2.17;99.28;98530.24;436574;1281;143237;-66
2022/12/11 01:18:11;;;;;;;24.40;16.20;;;;;;;-2.17;98.99;98514.98;435812;1282;142748;-66
2022/12/11 01:28:16;;;;;;;21.70;16.40;;;;;;;-2.19;98.60;98508.01;436503;1282;144597;-65
2022/12/11 01:38:22;;;;;;;22.50;16.00;;;;;;;-2.23;98.76;98496.96;436655;1288;145312;-66
2022/12/11 01:48:31;;;;;;;24.60;17.70;;;;;;;-2.24;98.68;98490.32;435956;1280;143836;-65
2022/12/11 01:58:43;;;;;;;24.60;18.20;;;;;;;-2.23;98.78;98481.22;436740;1279;142510;-64
2022/12/11 02:08:49;;;;;;;25.80;18.40;;;;;;;-2.26;98.33;98474.06;436563;1278;142683;-64
2022/12/11 02:19:01;;;;;;;29.60;21.00;;;;;;;-2.38;98.78;98453.00;435922;1287;159922;-64
2022/12/11 02:29:12;;;;;;;24.10;18.10;;;;;;;-2.42;98.76;98441.30;420740;1272;143734;-64
2022/12/11 02:39:21;;;;;;;29.60;18.00;;;;;;;-2.47;98.71;98435.80;435060;1281;143418;-64
2022/12/11 02:49:28;;;;;;;30.10;21.70;;;;;;;-2.55;98.72;98428.30;421794;1276;143346;-64
2022/12/11 02:59:36;;;;;;;26.30;18.00;;;;;;;-2.67;98.72;98431.37;436557;1278;141959;-65
2022/12/11 03:09:44;;;;;;;31.20;19.00;;;;;;;-2.80;98.94;98435.35;436011;1280;143074;-64
2022/12/11 03:20:20;;;;;;;29.70;21.60;;;;;;;-2.86;99.01;98444.95;436739;1277;143377;-64
2022/12/11 03:30:28;;;;;;;26.30;17.70;;;;;;;-2.91;99.09;98438.58;435989;1280;142841;-64
2022/12/11 03:40:36;;;;;;;30.90;20.80;;;;;;;-2.91;98.95;98448.33;436770;1272;143938;-64
2022/12/11 03:50:45;;;;;;;26.80;20.00;;;;;;;-2.94;99.07;98440.19;436749;1280;143502;-65
2022/12/11 04:00:50;;;;;;;24.20;17.00;;;;;;;-2.94;99.13;98436.92;435969;1274;142884;-64
2022/12/11 04:31:53;;;;;;;26.00;20.60;;;;;;;-3.04;98.63;98439.09;436766;1279;143609;-65
2022/12/11 04:41:58;;;;;;;25.70;18.60;;;;;;;-3.03;98.48;98433.41;435924;1281;154639;-65
2022/12/11 04:52:04;;;;;;;22.00;17.40;;;;;;;-3.03;98.14;98421.25;436700;1282;143366;-65
2022/12/11 05:02:33;;;;;;;23.00;17.30;;;;;;;-2.95;97.99;98410.23;436668;1280;143253;-65
2022/12/11 05:12:39;;;;;;;22.60;16.30;;;;;;;-3.01;97.84;98397.21;435980;1272;144079;-65
2022/12/11 05:22:45;;;;;;;22.80;17.50;;;;;;;-3.01;97.60;98390.03;436746;1281;143098;-64
2022/12/11 05:32:50;;;;;;;22.60;17.60;;;;;;;-3.00;97.43;98388.46;436783;1281;143267;-64
2022/12/11 05:42:56;;;;;;;26.10;18.50;;;;;;;-3.07;97.51;98380.45;436186;1274;195522;-66
2022/12/11 05:53:03;;;;;;;21.80;17.20;;;;;;;-3.15;97.39;98368.48;436709;1281;153560;-65
2022/12/11 06:03:09;;;;;;;23.50;17.80;;;;;;;-3.18;97.53;98365.17;436000;1278;145876;-66
2022/12/11 06:13:14;;;;;;;21.00;16.50;;;;;;;-3.16;97.68;98367.52;436773;1274;143939;-65
2022/12/11 06:23:20;;;;;;;21.90;18.10;;;;;;;-3.17;97.39;98374.37;436737;1279;198898;-66
2022/12/11 06:33:26;;;;;;;26.80;19.10;;;;;;;-3.23;97.55;98365.61;436041;1281;143313;-65
2022/12/11 06:43:32;;;;;;;27.30;19.60;;;;;;;-3.34;97.42;98367.99;436782;1277;142698;-66
2022/12/11 06:53:38;;;;;;;26.20;19.40;;;;;;;-3.42;97.46;98375.22;436824;1280;142589;-66
2022/12/11 07:03:44;;;;;;;24.20;17.80;;;;;;;-3.48;97.54;98385.45;426565;1272;142956;-65
2022/12/11 07:13:50;;;;;;;21.10;16.40;;;;;;;-3.54;97.51;98388.54;433200;1274;144064;-66
2022/12/11 07:23:55;;;;;;;24.00;19.00;;;;;;;-3.60;97.45;98385.25;435992;1281;144036;-66
2022/12/11 07:34:03;;;;;;;20.40;16.70;;;;;;;-3.62;97.49;98379.33;436728;1281;152114;-66
2022/12/11 07:44:29;;;;;;;21.10;17.90;;;;;;;-3.57;97.64;98367.73;436684;1277;142497;-66
2022/12/11 07:54:35;;;;;;;20.20;16.10;;;;;;;-3.49;97.66;98359.14;436000;1275;142971;-65
2022/12/11 08:04:41;;;;;;;19.40;14.60;;;;;;;-3.37;97.62;98355.06;434351;1279;142253;-67
2022/12/11 08:14:46;;;;;;;23.40;16.60;;;;;;;-3.26;97.40;98351.84;436783;1281;143108;-66
2022/12/11 08:24:52;;;;;;;19.50;15.20;;;;;;;-3.31;97.00;98341.04;436016;1282;142645;-66
2022/12/11 08:34:58;;;;;;;16.10;14.00;;;;;;;-3.19;97.20;98344.30;436732;1277;142891;-66
2022/12/11 08:45:28;;;;;;;16.60;13.00;;;;;;;-3.07;96.85;98352.73;436005;1281;142983;-66
2022/12/11 08:55:34;;;;;;;17.70;13.40;;;;;;;-2.98;96.82;98351.77;436773;1281;141413;-66
2022/12/11 09:05:40;;;;;;;19.10;14.60;;;;;;;-2.88;96.50;98341.71;426516;1271;142465;-66
2022/12/11 09:15:44;;;;;;;;;;;;;;;-2.89;96.29;98334.03;430693;1271;145462;-65
2022/12/11 09:25:50;;;;;;;20.00;15.30;;;;;;;-2.92;96.04;98333.08;436981;1280;128599;-64
2022/12/11 09:36:03;;;;;;;23.10;15.20;;;;;;;-2.89;95.81;98329.23;435945;1272;144703;-66
2022/12/11 09:46:12;;;;;;;20.70;16.50;;;;;;;-2.76;95.62;98315.84;436558;1275;143670;-65
2022/12/11 09:56:25;;;;;;;19.00;13.80;;;;;;;-2.63;95.92;98302.44;424355;1272;142031;-65
2022/12/11 10:06:35;;;;;;;17.00;14.00;;;;;;;-2.55;95.45;98283.33;434925;1281;142574;-65
2022/12/11 10:16:44;;;;;;;13.50;11.30;;;;;;;-2.69;94.89;98270.58;436731;1274;142375;-66
2022/12/11 10:26:54;;;;;;;14.70;11.20;;;;;;;-2.74;94.73;98266.95;436812;1280;144235;-65
2022/12/11 10:37:00;;;;;;;14.90;11.70;;;;;;;-2.57;94.94;98262.83;436265;1280;212959;-66
2022/12/11 10:47:10;;;;;;;11.70;8.50;;;;;;;-2.47;94.38;98251.89;436814;1281;142357;-66
2022/12/11 10:57:26;;;;;;;12.10;10.80;;;;;;;-2.50;94.02;98231.08;436042;1279;199361;-65
2022/12/11 11:07:33;;;;;;;14.10;11.50;;;;;;;-2.54;93.72;98215.27;436809;1280;143722;-65
2022/12/11 11:18:09;;;;;;;13.40;11.30;;;;;;;-2.56;94.04;98202.81;435974;1280;164097;-65
2022/12/11 11:28:20;;;;;;;15.50;11.10;;;;;;;-2.38;94.13;98196.23;436687;1281;143451;-65
2022/12/11 11:38:29;;;;;;;14.50;11.30;;;;;;;-2.36;93.86;98185.36;436681;1274;143143;-65
2022/12/11 11:48:55;;;;;;;12.30;10.60;;;;;;;-2.37;93.35;98182.16;435872;1274;142380;-67
2022/12/11 11:59:07;;;;;;;13.90;9.70;;;;;;;-2.44;93.10;98174.34;434556;1280;143257;-65
2022/12/11 12:09:24;;;;;;;10.40;9.20;;;;;;;-2.44;92.98;98155.83;435744;1281;143651;-66
2022/12/11 12:19:42;;;;;;;11.20;9.70;;;;;;;-2.41;93.09;98156.21;436670;1281;142334;-66
2022/12/11 12:30:02;;;;;;;10.70;8.60;;;;;;;-2.44;93.11;98148.09;436711;1278;143486;-66
2022/12/11 12:40:20;;;;;;;10.70;9.60;;;;;;;-2.48;93.01;98149.77;434656;1277;198926;-66
2022/12/11 12:50:32;;;;;;;12.20;8.80;;;;;;;-2.45;92.90;98139.92;429096;1279;142754;-65
2022/12/11 13:00:41;;;;;;;8.70;7.80;;;;;;;-2.61;92.17;98137.70;436008;1282;143032;-66
2022/12/11 13:10:58;;;;;;;12.10;9.80;;;;;;;-2.89;92.12;98137.77;436907;1278;140863;-67
2022/12/11 13:21:18;;;;;;;13.30;9.90;;;;;;;-2.89;92.90;98144.62;436211;1280;142582;-66
2022/12/11 13:31:35;;;;;;;13.60;10.60;;;;;;;-2.99;92.93;98148.01;436976;1280;143410;-66
2022/12/11 13:41:45;;;;;;;14.80;11.90;;;;;;;-3.11;92.86;98156.95;436972;1281;143688;-66
2022/12/11 13:51:56;;;;;;;17.30;13.50;;;;;;;-3.20;92.73;98153.98;436253;1282;143083;-66
2022/12/11 14:02:11;;;;;;;17.60;13.50;;;;;;;-3.36;92.73;98160.28;436902;1280;143712;-66
2022/12/11 14:12:21;;;;;;;16.90;12.10;;;;;;;-3.46;92.83;98167.41;436181;1277;142285;-67
2022/12/11 14:22:29;;;;;;;16.10;12.30;;;;;;;-3.59;92.68;98161.14;436825;1280;152885;-65
2022/12/11 14:32:42;;;;;;;17.50;14.60;;;;;;;-3.60;93.09;98158.75;436928;1282;142164;-66
2022/12/11 14:43:15;;;;;;;18.00;14.80;;;;;;;-3.55;93.35;98154.84;436301;1281;207680;-66
2022/12/11 14:53:25;;;;;;;16.30;11.90;;;;;;;-3.55;93.48;98150.40;436939;1287;143335;-67
2022/12/11 15:03:35;;;;;;;18.10;13.80;;;;;;;-3.58;93.50;98148.79;436203;1287;142965;-66
2022/12/11 15:13:52;;;;;;;19.40;14.90;;;;;;;-3.74;93.31;98153.86;436931;1287;141918;-66
2022/12/11 15:24:00;;;;;;;20.70;16.40;;;;;;;-3.88;93.44;98150.67;436204;1287;143812;-65
2022/12/11 15:34:23;;;;;;;19.40;13.70;;;;;;;-3.85;93.82;98151.60;437011;1287;142965;-65
2022/12/11 15:44:28;;;;;;;15.80;13.00;;;;;;;-3.96;93.53;98148.84;436961;1287;143348;-65
2022/12/11 15:54:54;;;;;;;15.20;12.70;;;;;;;-4.01;93.87;98143.70;431407;1287;198132;-64
2022/12/11 16:05:00;;;;;;;18.80;13.00;;;;;;;-4.00;93.95;98149.45;419857;1281;142513;-66
2022/12/11 16:15:07;;;;;;;18.70;15.50;;;;;;;-3.95;94.25;98144.89;434916;1281;144279;-66
2022/12/11 16:25:12;;;;;;;17.40;13.70;;;;;;;-3.99;94.05;98140.20;436958;1282;143385;-65
2022/12/11 16:35:19;;;;;;;19.10;13.40;;;;;;;-4.10;94.00;98131.44;436196;1281;141932;-65
2022/12/11 16:45:27;;;;;;;18.50;14.90;;;;;;;-4.29;94.13;98130.41;435591;1278;143968;-67
2022/12/11 16:55:46;;;;;;;19.40;14.40;;;;;;;-4.39;94.12;98135.11;425093;1281;185876;-67
2022/12/11 17:05:52;;;;;;;18.90;14.60;;;;;;;-4.45;94.32;98136.30;421895;1278;142515;-66
2022/12/11 17:16:02;;;;;;;;;;;;;;;-4.44;94.67;98128.60;436370;1277;207384;-67
2022/12/11 17:26:09;;;;;;;17.30;14.00;;;;;;;-4.44;94.69;98130.31;426675;1278;128080;-66
2022/12/11 17:36:16;;;;;;;19.90;15.80;;;;;;;-4.44;94.82;98132.87;421861;1276;198069;-66
2022/12/11 17:46:22;;;;;;;25.80;18.60;;;;;;;-4.40;94.95;98138.56;428821;1280;143795;-66
2022/12/11 17:56:28;;;;;;;17.90;13.60;;;;;;;-4.40;94.82;98143.17;436462;1275;142966;-67
2022/12/11 18:06:34;;;;;;;17.30;14.00;;;;;;;-4.50;94.56;98143.61;435773;1275;144332;-66
2022/12/11 18:16:40;;;;;;;20.20;14.70;;;;;;;-4.52;94.66;98146.90;429842;1275;142670;-66
2022/12/11 18:26:45;;;;;;;22.80;16.80;;;;;;;-4.47;94.91;98151.21;426593;1279;142582;-66
2022/12/11 18:36:51;;;;;;;22.60;17.30;;;;;;;-4.46;95.01;98143.34;434987;1282;142896;-65
2022/12/11 18:46:56;;;;;;;23.20;18.20;;;;;;;-4.48;94.98;98137.08;429843;1275;152985;-65
2022/12/11 18:57:01;;;;;;;;;;;;;;;-4.57;94.89;98130.81;435806;1282;143189;-66
2022/12/11 19:07:06;;;;;;;28.80;20.90;;;;;;;-4.63;94.90;98133.70;436499;1275;131156;-66
2022/12/11 19:17:12;;;;;;;29.50;22.00;;;;;;;-4.69;94.97;98134.02;436534;1278;143143;-66
2022/12/11 19:27:18;;;;;;;28.60;21.20;;;;;;;-4.71;95.08;98121.09;435784;1279;142916;-65
2022/12/11 19:37:23;;;;;;;29.10;23.00;;;;;;;-4.72;94.93;98128.81;436392;1282;144194;-66
2022/12/11 19:47:29;;;;;;;30.70;23.50;;;;;;;-4.68;95.18;98125.64;436550;1277;142211;-66
2022/12/11 19:57:35;;;;;;;30.50;23.20;;;;;;;-4.65;94.99;98118.73;435822;1282;143641;-65
2022/12/11 20:07:39;;;;;;;;;;;;;;;-4.71;94.86;98107.60;434787;1280;142993;-66
2022/12/11 20:17:46;;;;;;;25.20;19.90;;;;;;;-4.71;94.91;98103.68;436774;1280;185409;-65
2022/12/11 20:27:56;;;;;;;31.80;21.70;;;;;;;-4.69;94.93;98092.02;435860;1275;144505;-66
2022/12/11 20:38:11;;;;;;;30.60;23.10;;;;;;;-4.68;94.83;98090.80;436518;1274;143413;-65
2022/12/11 20:48:17;;;;;;;29.10;21.50;;;;;;;-4.67;94.95;98092.48;430856;1275;143149;-65
2022/12/11 20:58:23;;;;;;;32.70;22.40;;;;;;;-4.66;95.06;98094.33;436549;1274;143700;-66
2022/12/11 21:08:28;;;;;;;30.70;22.30;;;;;;;-4.62;95.00;98084.67;430898;1278;142838;-65
2022/12/11 21:18:56;;;;;;;30.40;21.70;;;;;;;-4.61;95.10;98081.39;426683;1279;213079;-65
2022/12/11 21:29:01;;;;;;;28.80;21.70;;;;;;;-4.59;95.05;98076.88;436706;1280;144761;-66
2022/12/11 21:39:07;;;;;;;26.70;20.60;;;;;;;-4.58;94.98;98079.26;423598;1275;142554;-66
2022/12/11 21:49:13;;;;;;;31.40;22.10;;;;;;;-4.57;95.01;98083.67;436754;1281;197102;-66
2022/12/11 21:59:19;;;;;;;29.80;20.60;;;;;;;-4.61;95.08;98077.30;419955;1278;142577;-66
2022/12/11 22:09:24;;;;;;;29.00;21.10;;;;;;;-4.65;95.21;98080.64;429697;1281;144731;-66
2022/12/11 22:19:30;;;;;;;27.50;18.90;;;;;;;-4.68;95.32;98079.86;436725;1274;143926;-66
2022/12/11 22:29:37;;;;;;;27.40;19.20;;;;;;;-4.63;95.33;98077.53;436726;1282;143504;-65
2022/12/11 22:39:42;;;;;;;25.50;18.10;;;;;;;-4.59;95.42;98073.66;433725;1280;144063;-64
2022/12/11 22:49:48;;;;;;;25.10;18.30;;;;;;;-4.58;95.46;98077.05;423527;1272;144353;-65
2022/12/11 22:59:55;;;;;;;27.60;20.30;;;;;;;-4.57;95.56;98085.02;431777;1282;143257;-64
2022/12/11 23:10:01;;;;;;;25.60;18.20;;;;;;;-4.52;95.81;98085.42;433603;1279;209388;-65
2022/12/11 23:20:09;;;;;;;23.30;17.40;;;;;;;-4.51;95.69;98088.81;424867;1272;143214;-66
2022/12/11 23:30:15;;;;;;;27.40;17.20;;;;;;;-4.45;95.92;98083.02;429886;1279;186902;-65
2022/12/11 23:40:42;;;;;;;23.50;15.80;;;;;;;-4.43;96.01;98080.73;423995;1272;143629;-66
2022/12/11 23:50:48;;;;;;;19.60;14.60;;;;;;;-4.38;96.17;98082.30;421685;1271;146104;-65
